createdAt,value
2022-08-31T00:00:11.900Z,99467.66
2022-08-31T00:02:57.853Z,99469.47
2022-08-31T00:05:24.257Z,99476.53
2022-08-31T00:07:51.787Z,99472.81
2022-08-31T00:10:20.318Z,99471.13
2022-08-31T00:12:58.776Z,99467.69
2022-08-31T00:15:25.929Z,99472.09
2022-08-31T00:17:52.889Z,99472.09
2022-08-31T00:20:32.698Z,99467.78
2022-08-31T00:23:05.294Z,99471.34
2022-08-31T00:25:35.775Z,99463.19
2022-08-31T00:28:02.953Z,99459.63
2022-08-31T00:30:29.719Z,99464.09
2022-08-31T00:32:58.285Z,99451.59
2022-08-31T00:35:25.850Z,99462.16
2022-08-31T00:37:52.249Z,99463.09
2022-08-31T00:40:18.835Z,99458.88
2022-08-31T00:42:45.267Z,99466.03
2022-08-31T00:45:11.719Z,99463.44
2022-08-31T00:47:38.133Z,99460.03
2022-08-31T00:50:06.352Z,99466.31
2022-08-31T00:52:37.646Z,99468.09
2022-08-31T00:55:09.825Z,99466.22
2022-08-31T00:57:37.755Z,99463.50
2022-08-31T01:00:06.796Z,99453.78
2022-08-31T01:02:33.239Z,99459.06
2022-08-31T01:04:59.766Z,99458.19
2022-08-31T01:07:27.240Z,99458.28
2022-08-31T01:09:56.093Z,99457.28
2022-08-31T01:12:23.104Z,99458.16
2022-08-31T01:14:49.753Z,99463.31
2022-08-31T01:17:17.422Z,99461.50
2022-08-31T01:19:54.360Z,99468.53
2022-08-31T01:22:38.987Z,99461.34
2022-08-31T01:25:07.577Z,99462.25
2022-08-31T01:27:35.170Z,99464.09
2022-08-31T01:30:02.565Z,99465.00
2022-08-31T01:32:29.204Z,99472.09
2022-08-31T01:34:55.767Z,99462.59
2022-08-31T01:37:29.360Z,99462.69
2022-08-31T01:39:56.666Z,99460.97
2022-08-31T01:42:23.097Z,99464.56
2022-08-31T01:44:59.828Z,99462.81
2022-08-31T01:47:26.392Z,99459.34
2022-08-31T01:49:52.775Z,99459.34
2022-08-31T01:52:23.962Z,99459.28
2022-08-31T01:54:53.913Z,99457.47
2022-08-31T01:57:21.766Z,99459.25
2022-08-31T02:00:01.359Z,99468.19
2022-08-31T02:02:27.887Z,99461.03
2022-08-31T02:04:54.311Z,99471.75
2022-08-31T02:07:23.114Z,99470.84
2022-08-31T02:09:49.553Z,99468.28
2022-08-31T02:12:17.388Z,99467.34
2022-08-31T02:14:43.786Z,99466.44
2022-08-31T02:17:10.954Z,99475.38
2022-08-31T02:19:37.482Z,99466.38
2022-08-31T02:22:04.008Z,99461.88
2022-08-31T02:24:30.838Z,99465.53
2022-08-31T02:26:57.398Z,99463.00
2022-08-31T02:29:23.869Z,99456.84
2022-08-31T02:31:50.371Z,99458.59
2022-08-31T02:34:17.385Z,99461.28
2022-08-31T02:36:45.290Z,99457.78
2022-08-31T02:39:12.114Z,99462.38
2022-08-31T02:41:41.339Z,99462.38
2022-08-31T02:44:07.770Z,99461.53
2022-08-31T02:46:37.524Z,99468.66
2022-08-31T02:49:04.365Z,99460.78
2022-08-31T02:51:30.779Z,99464.34
2022-08-31T02:53:57.723Z,99462.63
2022-08-31T02:56:24.279Z,99456.47
2022-08-31T02:58:54.781Z,99457.41
2022-08-31T03:01:22.503Z,99448.47
2022-08-31T03:03:49.022Z,99448.56
2022-08-31T03:06:15.800Z,99437.97
2022-08-31T03:08:42.274Z,99446.88
2022-08-31T03:11:08.770Z,99447.78
2022-08-31T03:13:39.681Z,99450.53
2022-08-31T03:16:06.700Z,99452.19
2022-08-31T03:18:33.722Z,99451.31
2022-08-31T03:21:02.243Z,99451.31
2022-08-31T03:23:28.677Z,99458.50
2022-08-31T03:25:55.118Z,99452.28
2022-08-31T03:28:24.878Z,99454.94
2022-08-31T03:30:51.381Z,99451.31
2022-08-31T03:33:20.164Z,99454.94
2022-08-31T03:35:50.159Z,99460.19
2022-08-31T03:38:16.801Z,99457.50
2022-08-31T03:40:44.171Z,99459.31
2022-08-31T03:43:11.621Z,99448.72
2022-08-31T03:45:43.231Z,99454.94
2022-08-31T03:48:12.741Z,99457.53
2022-08-31T03:50:40.317Z,99453.97
2022-08-31T03:53:07.555Z,99453.06
2022-08-31T03:55:34.959Z,99453.09
2022-08-31T03:58:01.811Z,99463.72
2022-08-31T04:00:29.567Z,99464.53
2022-08-31T04:03:03.092Z,99465.41
2022-08-31T04:05:31.174Z,99466.28
2022-08-31T04:07:57.749Z,99466.25
2022-08-31T04:10:24.209Z,99472.59
2022-08-31T04:12:50.965Z,99479.66
2022-08-31T04:15:18.060Z,99475.28
2022-08-31T04:17:47.748Z,99474.41
2022-08-31T04:20:14.813Z,99474.44
2022-08-31T04:22:41.313Z,99480.56
2022-08-31T04:25:10.432Z,99487.75
2022-08-31T04:27:38.273Z,99490.41
2022-08-31T04:30:07.559Z,99489.53
2022-08-31T04:32:34.908Z,99488.66
2022-08-31T04:35:02.027Z,99484.19
2022-08-31T04:37:29.397Z,99486.00
2022-08-31T04:40:01.354Z,99488.75
2022-08-31T04:42:29.100Z,99488.75
2022-08-31T04:44:55.667Z,99488.84
2022-08-31T04:47:22.071Z,99485.28
2022-08-31T04:49:51.978Z,99495.94
2022-08-31T04:52:18.383Z,99491.47
2022-08-31T04:54:48.404Z,99492.44
2022-08-31T04:57:15.008Z,99496.03
2022-08-31T04:59:41.435Z,99492.41
2022-08-31T05:02:07.903Z,99490.56
2022-08-31T05:04:34.453Z,99498.44
2022-08-31T05:07:00.843Z,99489.41
2022-08-31T05:09:27.344Z,99488.41
2022-08-31T05:11:54.632Z,99489.34
2022-08-31T05:14:24.881Z,99504.66
2022-08-31T05:16:51.596Z,99503.81
2022-08-31T05:19:18.435Z,99508.28
2022-08-31T05:21:45.802Z,99515.34
2022-08-31T05:24:17.411Z,99516.28
2022-08-31T05:26:50.668Z,99515.38
2022-08-31T05:29:18.806Z,99511.84
2022-08-31T05:31:50.260Z,99521.66
2022-08-31T05:34:19.086Z,99517.16
2022-08-31T05:36:48.922Z,99527.84
2022-08-31T05:39:15.772Z,99526.94
2022-08-31T05:41:43.567Z,99526.09
2022-08-31T05:44:10.513Z,99529.66
2022-08-31T05:46:37.177Z,99524.28
2022-08-31T05:49:06.164Z,99519.78
2022-08-31T05:51:38.341Z,99524.19
2022-08-31T05:54:05.097Z,99534.91
2022-08-31T05:56:31.519Z,99533.09
2022-08-31T05:58:57.935Z,99533.84
2022-08-31T06:01:26.075Z,99525.94
2022-08-31T06:03:54.188Z,99537.41
2022-08-31T06:06:21.265Z,99541.75
2022-08-31T06:08:47.688Z,99542.69
2022-08-31T06:11:19.198Z,99540.09
2022-08-31T06:13:46.220Z,99537.44
2022-08-31T06:16:13.986Z,99540.97
2022-08-31T06:18:41.343Z,99540.97
2022-08-31T06:21:16.157Z,99544.59
2022-08-31T06:23:42.961Z,99548.03
2022-08-31T06:26:13.054Z,99555.97
2022-08-31T06:28:44.139Z,99550.66
2022-08-31T06:31:18.597Z,99559.50
2022-08-31T06:33:47.445Z,99564.06
2022-08-31T06:36:15.789Z,99566.69
2022-08-31T06:38:43.514Z,99566.69
2022-08-31T06:41:12.975Z,99572.03
2022-08-31T06:43:39.542Z,99573.81
2022-08-31T06:46:06.399Z,99572.88
2022-08-31T06:48:33.400Z,99581.84
2022-08-31T06:50:59.859Z,99585.41
2022-08-31T06:53:29.734Z,99585.38
2022-08-31T06:55:56.170Z,99577.25
2022-08-31T06:58:23.614Z,99575.44
2022-08-31T07:00:50.252Z,99576.31
2022-08-31T07:03:33.116Z,99576.22
2022-08-31T07:06:03.228Z,99565.47
2022-08-31T07:08:29.898Z,99574.22
2022-08-31T07:10:56.397Z,99566.25
2022-08-31T07:13:26.582Z,99565.28
2022-08-31T07:16:02.089Z,99567.88
2022-08-31T07:18:28.622Z,99575.84
2022-08-31T07:20:55.133Z,99576.59
2022-08-31T07:23:24.317Z,99576.56
2022-08-31T07:25:55.157Z,99585.50
2022-08-31T07:28:21.639Z,99577.44
2022-08-31T07:30:50.198Z,99573.75
2022-08-31T07:33:17.621Z,99578.38
2022-08-31T07:35:44.204Z,99589.78
2022-08-31T07:38:29.438Z,99590.56
2022-08-31T07:41:14.639Z,99588.56
2022-08-31T07:43:41.836Z,99593.81
2022-08-31T07:46:08.496Z,99594.66
2022-08-31T07:48:37.732Z,99589.22
2022-08-31T07:51:04.237Z,99600.63
2022-08-31T07:53:47.535Z,99606.06
2022-08-31T07:56:16.442Z,99598.63
2022-08-31T07:58:43.132Z,99606.38
2022-08-31T08:01:09.665Z,99601.00
2022-08-31T08:03:36.102Z,99604.56
2022-08-31T08:06:14.381Z,99606.22
2022-08-31T08:08:42.836Z,99604.41
2022-08-31T08:11:18.865Z,99606.22
2022-08-31T08:13:45.386Z,99604.53
2022-08-31T08:16:11.876Z,99603.47
2022-08-31T08:18:44.129Z,99599.69
2022-08-31T08:21:10.603Z,99602.00
2022-08-31T08:23:40.249Z,99606.47
2022-08-31T08:26:10.820Z,99606.63
2022-08-31T08:28:48.613Z,99607.47
2022-08-31T08:31:18.962Z,99607.19
2022-08-31T08:33:45.878Z,99603.22
2022-08-31T08:36:12.700Z,99602.50
2022-08-31T08:38:50.302Z,99606.06
2022-08-31T08:41:27.268Z,99605.13
2022-08-31T08:43:58.904Z,99608.94
2022-08-31T08:46:37.353Z,99603.97
2022-08-31T08:49:10.743Z,99604.09
2022-08-31T08:51:38.818Z,99607.06
2022-08-31T08:54:09.695Z,99606.66
2022-08-31T08:56:47.708Z,99616.59
2022-08-31T08:59:19.348Z,99613.91
2022-08-31T09:01:47.998Z,99609.50
2022-08-31T09:04:17.492Z,99612.66
2022-08-31T09:06:46.477Z,99615.69
2022-08-31T09:09:22.093Z,99623.66
2022-08-31T09:12:00.343Z,99614.13
2022-08-31T09:14:29.878Z,99616.25
2022-08-31T09:16:59.434Z,99619.69
2022-08-31T09:19:25.845Z,99618.56
2022-08-31T09:21:56.492Z,99620.09
2022-08-31T09:24:26.736Z,99619.03
2022-08-31T09:27:19.258Z,99614.84
2022-08-31T09:29:59.202Z,99620.13
2022-08-31T09:32:27.780Z,99614.47
2022-08-31T09:35:01.456Z,99613.38
2022-08-31T09:37:33.638Z,99610.22
2022-08-31T09:40:23.409Z,99608.81
2022-08-31T09:43:05.904Z,99612.75
2022-08-31T09:45:38.910Z,99608.97
2022-08-31T09:48:08.313Z,99611.44
2022-08-31T09:50:37.595Z,99608.06
2022-08-31T09:53:25.877Z,99606.94
2022-08-31T09:56:03.968Z,99597.59
2022-08-31T09:58:33.337Z,99601.47
2022-08-31T10:01:12.705Z,99597.34
2022-08-31T10:03:45.750Z,99600.59
2022-08-31T10:06:46.667Z,99607.69
2022-08-31T10:09:45.040Z,99601.66
2022-08-31T10:12:23.002Z,99601.28
2022-08-31T10:15:02.484Z,99601.25
2022-08-31T10:17:36.822Z,99594.63
2022-08-31T10:20:09.885Z,99595.78
2022-08-31T10:22:42.036Z,99604.72
2022-08-31T10:25:15.339Z,99592.75
2022-08-31T10:27:48.241Z,99600.84
2022-08-31T10:30:17.716Z,99601.00
2022-08-31T10:32:49.269Z,99593.81
2022-08-31T10:35:19.649Z,99597.13
2022-08-31T10:38:08.172Z,99595.78
2022-08-31T10:41:00.308Z,99604.22
2022-08-31T10:43:33.200Z,99606.25
2022-08-31T10:45:59.852Z,99607.00
2022-08-31T10:48:30.372Z,99600.34
2022-08-31T10:50:56.721Z,99608.28
2022-08-31T10:53:27.192Z,99604.97
2022-08-31T10:55:58.592Z,99601.75
2022-08-31T10:58:25.047Z,99604.59
2022-08-31T11:00:59.968Z,99599.19
2022-08-31T11:03:35.757Z,99591.56
2022-08-31T11:06:22.517Z,99592.56
2022-08-31T11:09:12.965Z,99581.03
2022-08-31T11:11:46.408Z,99583.25
2022-08-31T11:14:32.474Z,99587.28
2022-08-31T11:17:04.775Z,99581.56
2022-08-31T11:19:56.936Z,99572.91
2022-08-31T11:22:42.122Z,99572.78
2022-08-31T11:25:27.301Z,99575.97
2022-08-31T11:28:07.401Z,99572.91
2022-08-31T11:30:41.769Z,99580.47
2022-08-31T11:33:19.565Z,99566.28
2022-08-31T11:36:07.274Z,99573.56
2022-08-31T11:38:41.397Z,99573.00
2022-08-31T11:41:13.462Z,99566.56
2022-08-31T11:43:44.578Z,99565.38
2022-08-31T11:46:26.839Z,99562.69
2022-08-31T11:48:54.011Z,99565.09
2022-08-31T11:51:36.081Z,99563.47
2022-08-31T11:54:11.472Z,99558.59
2022-08-31T11:56:39.423Z,99554.50
2022-08-31T11:59:38.379Z,99554.47
2022-08-31T12:02:20.042Z,99549.19
2022-08-31T12:04:47.565Z,99544.84
2022-08-31T12:07:17.141Z,99543.66
2022-08-31T12:09:46.630Z,99547.53
2022-08-31T12:12:30.430Z,99539.06
2022-08-31T12:15:10.526Z,99542.84
2022-08-31T12:17:46.976Z,99544.31
2022-08-31T12:20:19.670Z,99548.97
2022-08-31T12:23:31.491Z,99538.63
2022-08-31T12:26:33.954Z,99538.50
2022-08-31T12:29:10.016Z,99538.59
2022-08-31T12:31:38.127Z,99535.31
2022-08-31T12:34:07.897Z,99529.56
2022-08-31T12:36:35.565Z,99523.06
2022-08-31T12:39:13.812Z,99522.84
2022-08-31T12:41:47.046Z,99527.88
2022-08-31T12:44:19.235Z,99535.13
2022-08-31T12:46:45.769Z,99527.72
2022-08-31T12:49:24.153Z,99522.28
2022-08-31T12:51:56.539Z,99519.34
2022-08-31T12:54:41.683Z,99519.66
2022-08-31T12:57:26.791Z,99518.53
2022-08-31T13:00:08.727Z,99515.13
2022-08-31T13:02:42.105Z,99517.75
2022-08-31T13:05:26.334Z,99516.34
2022-08-31T13:07:52.865Z,99522.06
2022-08-31T13:10:22.091Z,99521.38
2022-08-31T13:13:09.788Z,99518.91
2022-08-31T13:15:39.904Z,99512.19
2022-08-31T13:18:11.231Z,99510.41
2022-08-31T13:20:43.353Z,99514.84
2022-08-31T13:23:13.206Z,99511.41
2022-08-31T13:25:39.864Z,99514.25
2022-08-31T13:28:07.305Z,99500.47
2022-08-31T13:30:36.284Z,99500.69
2022-08-31T13:33:17.820Z,99501.22
2022-08-31T13:35:50.838Z,99492.53
2022-08-31T13:38:17.747Z,99493.00
2022-08-31T13:40:50.247Z,99489.75
2022-08-31T13:43:20.298Z,99484.94
2022-08-31T13:45:57.038Z,99477.47
2022-08-31T13:48:31.990Z,99487.25
2022-08-31T13:51:00.408Z,99480.22
2022-08-31T13:53:42.812Z,99475.59
2022-08-31T13:56:46.451Z,99478.28
2022-08-31T13:59:20.118Z,99480.97
2022-08-31T14:01:47.861Z,99481.56
2022-08-31T14:04:43.643Z,99479.66
2022-08-31T14:07:15.158Z,99483.03
2022-08-31T14:09:44.916Z,99476.53
2022-08-31T14:12:19.533Z,99477.09
2022-08-31T14:14:46.226Z,99470.75
2022-08-31T14:17:16.272Z,99471.19
2022-08-31T14:19:44.311Z,99469.31
2022-08-31T14:22:31.510Z,99470.63
2022-08-31T14:25:02.826Z,99473.44
2022-08-31T14:27:29.689Z,99470.03
2022-08-31T14:29:57.673Z,99470.31
2022-08-31T14:32:24.097Z,99472.34
2022-08-31T14:34:54.272Z,99473.22
2022-08-31T14:37:23.820Z,99462.44
2022-08-31T14:39:52.333Z,99468.72
2022-08-31T14:42:21.440Z,99471.63
2022-08-31T14:44:59.031Z,99462.84
2022-08-31T14:47:30.389Z,99463.59
2022-08-31T14:50:01.184Z,99458.13
2022-08-31T14:52:28.399Z,99457.28
2022-08-31T14:55:02.521Z,99451.13
2022-08-31T14:57:30.480Z,99446.75
2022-08-31T14:59:59.699Z,99446.69
2022-08-31T15:02:27.665Z,99452.88
2022-08-31T15:04:59.714Z,99447.31
2022-08-31T15:07:31.260Z,99441.09
2022-08-31T15:10:01.838Z,99442.75
2022-08-31T15:12:28.680Z,99441.72
2022-08-31T15:14:58.901Z,99440.72
2022-08-31T15:17:29.111Z,99427.34
2022-08-31T15:19:56.197Z,99436.34
2022-08-31T15:22:26.094Z,99441.63
2022-08-31T15:24:53.227Z,99436.22
2022-08-31T15:27:20.700Z,99430.75
2022-08-31T15:29:49.508Z,99437.03
2022-08-31T15:32:18.913Z,99432.34
2022-08-31T15:34:50.026Z,99428.63
2022-08-31T15:37:16.982Z,99432.94
2022-08-31T15:39:48.849Z,99432.00
2022-08-31T15:42:21.189Z,99436.09
2022-08-31T15:44:56.137Z,99429.84
2022-08-31T15:47:45.693Z,99435.13
2022-08-31T15:50:19.239Z,99439.22
2022-08-31T15:52:51.177Z,99433.44
2022-08-31T15:55:21.619Z,99432.03
2022-08-31T15:57:48.155Z,99436.53
2022-08-31T16:00:14.980Z,99427.34
2022-08-31T16:02:41.933Z,99429.13
2022-08-31T16:05:08.559Z,99429.69
2022-08-31T16:07:35.121Z,99419.56
2022-08-31T16:10:02.334Z,99419.63
2022-08-31T16:12:32.231Z,99414.25
2022-08-31T16:14:58.851Z,99418.66
2022-08-31T16:17:25.298Z,99408.09
2022-08-31T16:19:51.774Z,99411.81
2022-08-31T16:22:18.627Z,99415.44
2022-08-31T16:24:45.317Z,99406.78
2022-08-31T16:27:15.911Z,99400.47
2022-08-31T16:29:43.271Z,99402.19
2022-08-31T16:32:09.887Z,99402.00
2022-08-31T16:34:39.082Z,99400.28
2022-08-31T16:37:10.476Z,99406.53
2022-08-31T16:39:41.365Z,99405.66
2022-08-31T16:42:08.817Z,99404.94
2022-08-31T16:44:37.002Z,99402.44
2022-08-31T16:47:03.939Z,99402.75
2022-08-31T16:49:33.534Z,99409.25
2022-08-31T16:52:05.894Z,99407.56
2022-08-31T16:54:33.102Z,99410.44
2022-08-31T16:57:02.599Z,99411.34
2022-08-31T16:59:29.477Z,99407.63
2022-08-31T17:01:56.289Z,99404.16
2022-08-31T17:04:51.147Z,99416.78
2022-08-31T17:07:14.665Z,99413.44
2022-08-31T17:09:41.495Z,99412.88
2022-08-31T17:12:13.066Z,99417.59
2022-08-31T17:14:47.601Z,99424.88
2022-08-31T17:17:18.079Z,99417.69
2022-08-31T17:19:45.246Z,99424.25
2022-08-31T17:22:16.998Z,99425.31
2022-08-31T17:24:46.662Z,99430.75
2022-08-31T17:27:14.827Z,99429.16
2022-08-31T17:29:44.485Z,99430.03
2022-08-31T17:32:12.550Z,99435.41
2022-08-31T17:34:39.323Z,99441.13
2022-08-31T17:37:07.604Z,99438.53
2022-08-31T17:39:34.185Z,99439.75
2022-08-31T17:42:04.328Z,99442.63
2022-08-31T17:44:30.995Z,99440.88
2022-08-31T17:46:58.651Z,99445.25
2022-08-31T17:49:26.304Z,99442.66
2022-08-31T17:51:53.402Z,99440.88
2022-08-31T17:54:22.185Z,99440.97
2022-08-31T17:56:55.933Z,99442.81
2022-08-31T17:59:24.218Z,99452.75
2022-08-31T18:01:54.915Z,99452.84
2022-08-31T18:04:23.357Z,99453.06
2022-08-31T18:06:53.329Z,99455.16
2022-08-31T18:09:23.410Z,99461.50
2022-08-31T18:11:49.869Z,99467.13
2022-08-31T18:14:17.165Z,99475.34
2022-08-31T18:16:44.569Z,99471.84
2022-08-31T18:19:11.696Z,99473.94
2022-08-31T18:21:38.285Z,99477.78
2022-08-31T18:24:06.129Z,99475.25
2022-08-31T18:26:37.018Z,99480.81
2022-08-31T18:29:06.362Z,99476.38
2022-08-31T18:31:33.355Z,99485.41
2022-08-31T18:34:00.874Z,99491.75
2022-08-31T18:36:28.994Z,99488.28
2022-08-31T18:38:56.966Z,99490.09
2022-08-31T18:41:42.831Z,99488.19
2022-08-31T18:44:30.767Z,99490.16
2022-08-31T18:46:57.851Z,99484.06
2022-08-31T18:49:24.532Z,99492.38
2022-08-31T18:51:52.189Z,99490.91
2022-08-31T18:54:19.474Z,99491.13
2022-08-31T18:56:46.726Z,99490.28
2022-08-31T18:59:13.281Z,99492.97
2022-08-31T19:01:39.843Z,99489.50
2022-08-31T19:04:07.377Z,99496.81
2022-08-31T19:06:34.472Z,99495.22
2022-08-31T19:09:03.321Z,99497.25
2022-08-31T19:11:29.752Z,99492.78
2022-08-31T19:13:56.215Z,99496.25
2022-08-31T19:16:27.253Z,99500.72
2022-08-31T19:18:58.531Z,99496.28
2022-08-31T19:21:29.742Z,99499.06
2022-08-31T19:23:57.085Z,99499.13
2022-08-31T19:26:30.030Z,99502.75
2022-08-31T19:28:56.865Z,99492.16
2022-08-31T19:31:24.505Z,99499.38
2022-08-31T19:33:56.399Z,99494.94
2022-08-31T19:36:24.365Z,99500.34
2022-08-31T19:38:50.911Z,99506.53
2022-08-31T19:41:22.097Z,99505.69
2022-08-31T19:43:56.139Z,99508.50
2022-08-31T19:46:32.884Z,99505.84
2022-08-31T19:48:59.761Z,99504.16
2022-08-31T19:51:27.153Z,99501.53
2022-08-31T19:53:55.141Z,99498.75
2022-08-31T19:56:31.036Z,99503.31
2022-08-31T19:58:58.545Z,99501.47
2022-08-31T20:01:26.176Z,99499.59
2022-08-31T20:03:55.154Z,99500.59
2022-08-31T20:06:23.075Z,99502.75
2022-08-31T20:08:50.142Z,99501.94
2022-08-31T20:11:21.656Z,99505.44
2022-08-31T20:13:48.978Z,99508.94
2022-08-31T20:16:15.523Z,99509.97
2022-08-31T20:18:46.919Z,99514.41
2022-08-31T20:21:18.185Z,99508.28
2022-08-31T20:23:45.102Z,99509.19
2022-08-31T20:26:12.147Z,99513.72
2022-08-31T20:28:39.468Z,99514.78
2022-08-31T20:31:07.694Z,99518.31
2022-08-31T20:33:37.624Z,99512.88
2022-08-31T20:36:23.805Z,99509.31
2022-08-31T20:38:54.141Z,99514.72
2022-08-31T20:41:20.531Z,99512.91
2022-08-31T20:43:46.919Z,99512.00
2022-08-31T20:46:32.141Z,99504.94
2022-08-31T20:49:17.056Z,99510.38
2022-08-31T20:51:44.122Z,99511.34
2022-08-31T20:54:10.655Z,99517.75
2022-08-31T20:56:39.181Z,99518.63
2022-08-31T20:59:11.485Z,99521.25
2022-08-31T21:01:38.221Z,99525.00
2022-08-31T21:04:05.213Z,99517.09
2022-08-31T21:06:31.880Z,99516.19
2022-08-31T21:09:02.748Z,99513.63
2022-08-31T21:11:37.591Z,99519.91
2022-08-31T21:14:03.957Z,99513.81
2022-08-31T21:16:32.331Z,99521.75
2022-08-31T21:18:58.817Z,99520.81
2022-08-31T21:21:26.402Z,99518.94
2022-08-31T21:23:52.818Z,99507.19
2022-08-31T21:26:27.665Z,99510.66
2022-08-31T21:28:58.130Z,99516.91
2022-08-31T21:31:28.949Z,99519.75
2022-08-31T21:34:00.190Z,99524.28
2022-08-31T21:36:27.480Z,99523.56
2022-08-31T21:38:55.042Z,99524.72
2022-08-31T21:41:26.908Z,99532.06
2022-08-31T21:43:54.472Z,99526.75
2022-08-31T21:46:22.392Z,99531.09
2022-08-31T21:48:50.034Z,99529.25
2022-08-31T21:51:30.529Z,99525.53
2022-08-31T21:53:59.210Z,99533.34
2022-08-31T21:56:26.583Z,99533.31
2022-08-31T21:58:56.396Z,99533.34
2022-08-31T22:01:23.871Z,99536.03
2022-08-31T22:03:54.236Z,99535.19
2022-08-31T22:06:26.741Z,99541.31
2022-08-31T22:08:55.226Z,99542.28
2022-08-31T22:11:22.827Z,99544.09
2022-08-31T22:13:50.662Z,99550.53
2022-08-31T22:16:20.070Z,99546.97
2022-08-31T22:19:06.894Z,99545.31
2022-08-31T22:21:34.886Z,99549.88
2022-08-31T22:24:03.745Z,99551.69
2022-08-31T22:26:33.141Z,99547.22
2022-08-31T22:28:59.665Z,99548.19
2022-08-31T22:31:27.335Z,99553.38
2022-08-31T22:33:54.194Z,99557.84
2022-08-31T22:36:30.952Z,99556.88
2022-08-31T22:38:59.855Z,99560.41
2022-08-31T22:41:26.256Z,99559.59
2022-08-31T22:43:52.719Z,99556.03
2022-08-31T22:46:26.756Z,99556.91
2022-08-31T22:48:53.164Z,99554.22
2022-08-31T22:51:20.309Z,99555.16
2022-08-31T22:53:47.048Z,99554.34
2022-08-31T22:56:18.226Z,99558.81
2022-08-31T22:58:44.891Z,99555.28
2022-08-31T23:01:23.212Z,99551.72
2022-08-31T23:03:51.148Z,99553.44
2022-08-31T23:06:23.242Z,99548.09
2022-08-31T23:08:50.537Z,99551.72
2022-08-31T23:11:19.094Z,99557.03
2022-08-31T23:13:52.715Z,99549.94
2022-08-31T23:16:20.145Z,99545.56
2022-08-31T23:18:49.468Z,99553.59
2022-08-31T23:21:18.075Z,99546.47
2022-08-31T23:23:44.892Z,99537.53
2022-08-31T23:26:12.246Z,99542.84
2022-08-31T23:28:39.615Z,99535.78
2022-08-31T23:31:09.627Z,99537.63
2022-08-31T23:33:36.525Z,99535.00
2022-08-31T23:36:03.923Z,99532.41
2022-08-31T23:38:31.270Z,99525.28
2022-08-31T23:40:57.921Z,99525.19
2022-08-31T23:43:26.696Z,99524.31
2022-08-31T23:45:57.606Z,99520.78
2022-08-31T23:48:24.109Z,99523.50
2022-08-31T23:50:54.473Z,99516.47
2022-08-31T23:53:22.214Z,99517.31
2022-08-31T23:55:48.664Z,99527.94
2022-08-31T23:58:19.952Z,99514.63
